Time;durP1;ratioP1;P1;durP2;ratioP2;P2;SDS_P1;SDS_P2;PMS_P1;PMS_P2;Temp;Humidity;BMP_temperature;BMP_pressure;BME280_temperature;BME280_humidity;BME280_pressure;Samples;Min_cycle;Max_cycle;Signal;HPM_P1;HPM_P2
2023/05/04 00:01:36;;;;;;;5.17;3.47;;;8.70;93.80;;;8.21;61.23;101913.63;5016118;28;20672;-72
2023/05/04 00:04:09;;;;;;;6.27;3.53;;;8.70;93.20;;;8.28;61.37;101909.56;5016286;28;20219;-72
2023/05/04 00:06:41;;;;;;;4.77;3.23;;;8.60;93.40;;;8.21;61.44;101913.63;5016312;28;20327;-72
2023/05/04 00:09:13;;;;;;;6.87;3.60;;;8.60;93.40;;;8.13;61.18;101911.53;5016166;28;20242;-73
2023/05/04 00:11:46;;;;;;;5.53;3.83;;;8.50;93.30;;;8.05;61.59;101913.06;5016177;28;20199;-72
2023/05/04 00:14:19;;;;;;;7.13;3.67;;;8.50;93.70;;;8.02;61.69;101916.81;5015844;28;20196;-72
2023/05/04 00:16:51;;;;;;;5.97;3.57;;;8.40;93.60;;;7.99;61.72;101906.38;5016107;28;20206;-72
2023/05/04 00:19:23;;;;;;;9.30;4.10;;;8.40;93.70;;;7.96;62.41;101913.75;5016008;28;20297;-72
2023/05/04 00:21:55;;;;;;;6.10;3.67;;;8.40;93.60;;;7.91;61.83;101913.25;5016013;28;20196;-72
2023/05/04 00:24:27;;;;;;;6.77;3.70;;;8.30;93.90;;;7.83;62.99;101910.31;5016737;28;20215;-73
2023/05/04 00:26:58;;;;;;;6.93;3.73;;;8.30;93.90;;;7.79;62.44;101906.16;5018489;28;20203;-73
2023/05/04 00:29:31;;;;;;;5.40;3.80;;;8.20;94.00;;;7.74;62.76;101906.50;5017263;28;20232;-73
2023/05/04 00:32:03;;;;;;;5.53;3.57;;;8.20;94.10;;;7.66;63.28;101903.56;5017869;28;20231;-73
2023/05/04 00:34:35;;;;;;;8.57;3.57;;;8.10;94.40;;;7.76;62.96;101909.06;5017435;28;20184;-73
2023/05/04 00:37:07;;;;;;;6.33;3.77;;;8.20;94.30;;;7.77;63.22;101902.78;5016070;28;20202;-73
2023/05/04 00:39:39;;;;;;;6.77;3.30;;;8.20;94.60;;;7.80;62.97;101903.41;5015243;28;20602;-73
2023/05/04 00:42:11;;;;;;;6.30;3.70;;;8.30;94.40;;;7.85;63.99;101903.03;5015578;28;20188;-73
2023/05/04 00:44:44;;;;;;;6.97;4.13;;;8.30;94.70;;;7.75;63.64;101907.34;5015400;28;20227;-73
2023/05/04 00:47:18;;;;;;;7.07;3.40;;;8.30;94.30;;;7.82;63.29;101895.25;5015539;28;20191;-74
2023/05/04 00:49:51;;;;;;;5.83;4.00;;;8.30;94.40;;;7.66;62.95;101895.56;5015426;28;20281;-73
2023/05/04 00:52:24;;;;;;;5.57;3.40;;;8.20;94.30;;;7.61;63.66;101892.38;5015355;28;20192;-73
2023/05/04 00:54:56;;;;;;;6.27;3.73;;;8.00;94.70;;;7.45;64.44;101900.66;5015073;28;20194;-73
2023/05/04 00:57:28;;;;;;;4.97;3.60;;;7.80;95.10;;;7.35;64.67;101888.13;5015316;28;20198;-73
2023/05/04 01:00:01;;;;;;;3.60;3.30;;;7.80;95.20;;;7.24;64.26;101898.69;5014910;28;20233;-73
2023/05/04 01:02:33;;;;;;;7.53;3.90;;;7.70;95.60;;;7.22;64.63;101889.97;5014897;28;20554;-73
2023/05/04 01:05:06;;;;;;;7.83;4.00;;;7.70;95.30;;;7.26;64.96;101881.63;5014553;28;20216;-73
2023/05/04 01:07:49;;;;;;;6.73;3.70;;;7.70;95.30;;;7.19;64.69;101890.19;5015142;28;20198;-73
2023/05/04 01:10:30;;;;;;;5.83;3.97;;;7.60;95.30;;;7.18;64.67;101885.81;5014964;28;20231;-73
2023/05/04 01:13:09;;;;;;;6.33;3.50;;;7.60;95.30;;;7.29;63.88;101884.09;5014990;28;20199;-73
2023/05/04 01:15:44;;;;;;;7.73;3.93;;;7.80;95.10;;;7.19;64.35;101880.41;5014684;28;20671;-73
2023/05/04 01:18:16;;;;;;;6.83;3.93;;;7.70;95.10;;;7.19;64.97;101877.75;5014904;28;20241;-73
2023/05/04 01:20:48;;;;;;;6.33;3.67;;;7.70;95.40;;;7.12;64.66;101879.16;5014809;28;20599;-73
2023/05/04 01:23:21;;;;;;;6.03;3.40;;;7.60;95.30;;;7.13;64.92;101880.81;5015575;28;20203;-73
2023/05/04 01:26:03;;;;;;;6.33;3.70;;;7.60;95.40;;;7.09;65.02;101885.53;5014745;28;20650;-72
2023/05/04 01:28:44;;;;;;;5.57;3.60;;;7.60;95.50;;;7.02;64.68;101881.59;5014346;28;20196;-73
2023/05/04 01:31:22;;;;;;;6.43;3.63;;;7.50;95.50;;;7.09;64.87;101882.84;5014687;28;20195;-73
2023/05/04 01:33:57;;;;;;;5.47;3.63;;;7.50;95.70;;;7.07;64.83;101881.28;5014226;28;20725;-73
2023/05/04 01:36:29;;;;;;;5.63;3.60;;;7.50;95.60;;;7.06;64.24;101880.41;5014633;28;20199;-73
2023/05/04 01:39:05;;;;;;;6.13;3.57;;;7.60;95.40;;;7.01;64.96;101876.38;5014515;28;20227;-73
2023/05/04 01:41:36;;;;;;;8.03;3.47;;;7.50;95.40;;;7.00;64.96;101883.53;5014524;28;20195;-73
2023/05/04 01:44:09;;;;;;;5.77;3.43;;;7.50;95.30;;;6.97;64.96;101885.56;5014439;28;20192;-73
2023/05/04 01:46:41;;;;;;;7.53;3.63;;;7.40;95.40;;;6.83;65.40;101880.34;5014400;28;20212;-73
2023/05/04 01:49:13;;;;;;;7.23;3.77;;;7.30;95.60;;;6.85;64.83;101881.94;5014335;28;20235;-73
2023/05/04 01:51:45;;;;;;;5.73;3.30;;;7.40;95.60;;;6.84;64.56;101885.59;5014325;28;20203;-73
2023/05/04 01:54:18;;;;;;;6.27;3.63;;;7.40;95.40;;;6.84;64.86;101882.06;5014350;28;20191;-73
2023/05/04 01:56:50;;;;;;;5.87;3.70;;;7.30;95.60;;;6.85;64.59;101873.13;5014316;28;20199;-73
2023/05/04 01:59:22;;;;;;;7.33;3.60;;;7.30;95.50;;;6.79;64.93;101876.19;5014161;28;20235;-73
2023/05/04 02:01:54;;;;;;;10.07;3.67;;;7.30;95.50;;;6.74;65.14;101886.34;5014206;28;20191;-73
2023/05/04 02:04:26;;;;;;;4.10;3.20;;;7.20;95.70;;;6.70;65.53;101887.50;5014177;28;20188;-73
2023/05/04 02:06:58;;;;;;;5.90;3.67;;;7.20;95.60;;;6.70;65.15;101882.19;5014085;28;20218;-73
2023/05/04 02:09:31;;;;;;;5.07;3.17;;;7.20;95.60;;;6.71;64.84;101886.56;5014031;28;20234;-73
2023/05/04 02:12:03;;;;;;;7.10;3.63;;;7.20;95.70;;;6.64;65.32;101886.13;5013733;28;20542;-73
2023/05/04 02:14:35;;;;;;;7.03;3.40;;;7.20;95.60;;;6.64;65.41;101886.97;5013992;28;20214;-73
2023/05/04 02:17:07;;;;;;;7.80;3.70;;;7.20;95.80;;;6.56;65.61;101881.34;5012870;28;20637;-73
2023/05/04 02:19:38;;;;;;;8.80;3.80;;;7.10;95.80;;;6.61;65.87;101881.84;5013757;28;20230;-73
2023/05/04 02:22:10;;;;;;;4.50;3.50;;;7.10;96.00;;;6.55;65.89;101884.09;5013938;28;20192;-73
2023/05/04 02:24:43;;;;;;;7.00;3.73;;;7.10;96.00;;;6.48;66.73;101889.00;5013609;28;20644;-73
2023/05/04 02:27:15;;;;;;;8.10;3.80;;;7.00;96.40;;;6.54;66.32;101888.56;5013776;28;20221;-73
2023/05/04 02:29:47;;;;;;;8.10;3.57;;;7.10;96.40;;;6.52;65.96;101885.16;5014338;28;20228;-73
2023/05/04 02:32:19;;;;;;;6.80;3.73;;;7.10;96.10;;;6.53;66.28;101886.88;5013566;28;20223;-73
2023/05/04 02:34:49;;;;;;;8.17;3.60;;;7.10;96.20;;;6.50;66.42;101888.91;5013488;28;20644;-73
2023/05/04 02:37:21;;;;;;;5.83;3.87;;;7.00;96.30;;;6.45;66.11;101893.69;5013392;28;20577;-73
2023/05/04 02:39:54;;;;;;;8.83;4.50;;;7.00;96.30;;;6.47;66.25;101889.13;5013651;28;20231;-73
2023/05/04 02:42:26;;;;;;;5.77;3.90;;;7.00;96.30;;;6.46;66.64;101890.91;5013547;28;20219;-73
2023/05/04 02:44:58;;;;;;;8.10;4.23;;;7.00;96.40;;;6.48;66.43;101883.66;5013400;28;20196;-73
2023/05/04 02:47:30;;;;;;;7.87;4.03;;;7.10;96.30;;;6.38;66.32;101887.06;5013601;28;20212;-73
2023/05/04 02:50:02;;;;;;;8.13;3.67;;;7.00;96.30;;;6.28;67.13;101889.50;5013588;28;20227;-73
2023/05/04 02:52:34;;;;;;;8.43;4.03;;;6.80;96.70;;;6.23;67.11;101889.00;5013579;28;20192;-73
2023/05/04 02:55:09;;;;;;;8.30;3.97;;;6.80;96.70;;;6.24;68.17;101884.50;5013286;28;20672;-73
2023/05/04 02:57:41;;;;;;;5.63;3.67;;;6.80;96.90;;;6.25;68.12;101887.06;5013610;28;20191;-73
2023/05/04 03:00:15;;;;;;;5.43;3.60;;;6.80;96.90;;;6.21;67.50;101880.25;5013495;28;20297;-73
2023/05/04 03:02:47;;;;;;;8.30;4.13;;;6.80;96.80;;;6.21;68.13;101874.06;5013818;28;20203;-73
2023/05/04 03:05:18;;;;;;;6.03;3.80;;;6.80;97.00;;;6.26;67.60;101875.47;5013531;28;20196;-73
2023/05/04 03:07:50;;;;;;;5.93;3.90;;;6.90;96.90;;;6.28;67.64;101878.88;5013271;28;20195;-73
2023/05/04 03:10:23;;;;;;;6.47;3.60;;;6.90;96.60;;;6.31;66.56;101881.31;5013463;28;20231;-73
2023/05/04 03:12:55;;;;;;;10.73;4.40;;;7.00;96.60;;;6.10;67.22;101867.69;5013581;28;20203;-73
2023/05/04 03:15:27;;;;;;;7.60;3.80;;;6.70;96.80;;;6.16;67.35;101870.91;5013472;28;20639;-73
2023/05/04 03:17:59;;;;;;;8.80;4.03;;;6.60;97.00;;;6.15;67.52;101875.34;5013121;28;20641;-73
2023/05/04 03:20:31;;;;;;;7.37;4.10;;;6.80;96.90;;;5.99;68.19;101869.38;5013029;28;20242;-72
2023/05/04 03:23:03;;;;;;;7.50;3.90;;;6.50;97.10;;;5.95;67.80;101873.19;5013958;28;20196;-72
2023/05/04 03:25:36;;;;;;;4.57;3.63;;;6.50;97.30;;;5.88;68.39;101871.91;5013800;28;20192;-72
2023/05/04 03:28:08;;;;;;;5.57;3.63;;;6.50;97.40;;;5.86;68.80;101863.16;5013636;28;20195;-73
2023/05/04 03:30:40;;;;;;;7.07;3.97;;;6.40;97.30;;;5.88;67.93;101867.44;5016570;28;20640;-73
2023/05/04 03:33:12;;;;;;;11.80;3.97;;;6.50;97.30;;;5.83;68.55;101866.84;5016583;28;20230;-73
2023/05/04 03:35:44;;;;;;;6.33;3.57;;;6.40;97.30;;;5.96;67.67;101864.25;5016598;28;20580;-73
2023/05/04 03:38:16;;;;;;;7.20;3.80;;;6.50;97.10;;;5.93;67.61;101861.81;5016770;28;20238;-72
2023/05/04 03:40:49;;;;;;;5.27;3.47;;;6.50;96.90;;;5.90;68.17;101862.00;5016435;28;20704;-73
2023/05/04 03:43:21;;;;;;;6.43;3.33;;;6.50;97.40;;;5.89;68.26;101863.81;5016692;28;20191;-73
2023/05/04 03:45:52;;;;;;;7.30;3.50;;;6.50;97.30;;;5.96;67.80;101858.94;5016531;28;20242;-73
2023/05/04 03:48:24;;;;;;;7.87;4.20;;;6.60;97.60;;;5.81;68.19;101870.56;5016690;28;20200;-73
2023/05/04 03:50:57;;;;;;;8.50;3.97;;;6.40;97.30;;;5.78;68.91;101866.31;5016817;28;20192;-73
2023/05/04 03:53:29;;;;;;;7.63;3.60;;;6.40;97.50;;;5.80;68.74;101863.53;5016902;28;20226;-73
2023/05/04 03:56:02;;;;;;;7.77;3.83;;;6.40;97.60;;;5.77;69.22;101861.09;5016603;28;20192;-74
2023/05/04 03:58:32;;;;;;;9.03;4.37;;;6.40;97.60;;;5.81;69.36;101860.81;5016501;28;20207;-74
2023/05/04 04:01:05;;;;;;;7.97;4.03;;;6.40;97.90;;;5.77;69.27;101855.78;5016318;28;20215;-73
2023/05/04 04:03:37;;;;;;;6.83;3.50;;;6.40;97.80;;;5.78;69.42;101858.34;5016078;28;20200;-73
2023/05/04 04:06:12;;;;;;;7.80;3.63;;;6.40;97.90;;;5.73;70.13;101854.28;5016329;28;20212;-73
2023/05/04 04:08:43;;;;;;;7.43;3.90;;;6.40;98.10;;;5.81;69.61;101851.97;5016226;28;20188;-73
2023/05/04 04:11:16;;;;;;;7.00;3.77;;;6.50;97.90;;;5.81;69.62;101849.31;5016421;28;20195;-73
2023/05/04 04:13:48;;;;;;;5.47;4.00;;;6.40;97.80;;;5.80;69.24;101847.59;5016244;28;20249;-73
2023/05/04 04:16:20;;;;;;;6.60;3.77;;;6.50;97.80;;;5.76;69.63;101846.97;5016200;28;20191;-73
2023/05/04 04:18:52;;;;;;;9.60;4.07;;;6.40;97.80;;;5.79;69.78;101845.94;5016050;28;20234;-73
2023/05/04 04:21:25;;;;;;;10.33;4.13;;;6.40;98.10;;;5.79;69.96;101846.75;5015855;28;20202;-73
2023/05/04 04:23:57;;;;;;;8.77;3.90;;;6.40;98.00;;;5.80;70.32;101847.59;5015775;28;20199;-74
2023/05/04 04:26:31;;;;;;;7.77;3.67;;;6.50;98.30;;;5.86;70.08;101847.22;5015522;28;20212;-73
2023/05/04 04:29:03;;;;;;;5.97;3.70;;;6.50;98.30;;;5.83;70.39;101837.63;5015855;28;20256;-73
2023/05/04 04:31:38;;;;;;;6.07;3.60;;;6.50;98.20;;;5.87;70.67;101840.97;5015396;28;20218;-74
2023/05/04 04:34:11;;;;;;;8.33;3.80;;;6.50;98.50;;;5.82;70.67;101843.06;5015508;28;20219;-73
2023/05/04 04:36:43;;;;;;;5.63;3.60;;;6.50;98.50;;;5.85;70.85;101840.19;5015420;28;20656;-73
2023/05/04 04:39:15;;;;;;;5.87;3.80;;;6.50;98.60;;;5.85;71.09;101845.50;5015693;28;20235;-74
2023/05/04 04:41:48;;;;;;;9.77;3.47;;;6.50;98.50;;;5.85;71.64;101841.03;5015047;28;20601;-74
2023/05/04 04:44:20;;;;;;;8.07;4.40;;;6.50;98.80;;;5.87;71.62;101843.63;5015480;28;20196;-74
2023/05/04 04:46:52;;;;;;;7.10;3.67;;;6.60;99.30;;;5.85;71.76;101846.34;5015216;28;20238;-73
2023/05/04 04:49:24;;;;;;;7.27;4.00;;;6.50;99.00;;;5.90;71.39;101838.09;5015326;28;20265;-73
2023/05/04 04:51:56;;;;;;;6.30;3.67;;;6.60;98.80;;;5.88;71.97;101840.88;5015417;28;20196;-73
2023/05/04 04:54:28;;;;;;;9.10;4.20;;;6.60;98.90;;;5.91;71.75;101829.16;5015074;28;20214;-74
2023/05/04 04:57:01;;;;;;;9.07;4.17;;;6.60;98.90;;;5.90;71.58;101828.31;5014981;28;20195;-75
2023/05/04 04:59:33;;;;;;;8.07;3.93;;;6.60;98.90;;;5.90;71.77;101838.09;5015143;28;20239;-74
2023/05/04 05:02:05;;;;;;;11.53;4.30;;;6.60;98.90;;;5.93;71.72;101835.22;5014942;28;20192;-74
2023/05/04 05:04:39;;;;;;;8.33;4.00;;;6.60;99.00;;;5.90;72.03;101840.75;5015271;28;20188;-74
2023/05/04 05:07:11;;;;;;;8.60;4.20;;;6.60;99.00;;;5.91;72.26;101834.47;5014812;28;20691;-73
2023/05/04 05:09:43;;;;;;;5.87;3.80;;;6.60;99.20;;;5.94;72.61;101839.59;5015091;28;20227;-73
2023/05/04 05:12:16;;;;;;;8.77;4.30;;;6.70;99.30;;;5.97;72.42;101834.06;5015224;28;20200;-73
2023/05/04 05:14:49;;;;;;;5.53;3.70;;;6.70;99.30;;;5.98;71.99;101831.31;5014937;28;20585;-73
2023/05/04 05:17:22;;;;;;;8.67;4.50;;;6.70;99.10;;;6.02;72.44;101831.97;5015112;28;20224;-62
2023/05/04 05:19:53;;;;;;;14.73;4.80;;;6.70;99.20;;;6.04;72.62;101835.34;5015541;28;20230;-78
2023/05/04 05:22:25;;;;;;;8.10;4.73;;;6.80;99.20;;;6.08;73.00;101828.88;5015524;28;20191;-78
2023/05/04 05:24:57;;;;;;;9.83;4.20;;;6.80;99.40;;;6.13;72.39;101829.38;5015459;28;20203;-78
2023/05/04 05:27:30;;;;;;;10.60;4.07;;;6.80;99.30;;;6.13;72.52;101817.94;5014989;28;20603;-78
2023/05/04 05:30:04;;;;;;;8.73;4.27;;;6.90;99.30;;;6.16;72.14;101818.56;5014955;28;20231;-78
2023/05/04 05:32:37;;;;;;;10.87;4.53;;;7.00;99.10;;;6.17;72.32;101819.41;5014972;28;20229;-78
2023/05/04 05:35:11;;;;;;;8.93;4.57;;;6.90;99.10;;;6.22;72.50;101811.97;5015265;28;20568;-78
2023/05/04 05:37:43;;;;;;;11.23;4.43;;;6.90;99.20;;;6.22;72.54;101823.47;5015334;28;20548;-78
2023/05/04 05:40:16;;;;;;;6.30;4.13;;;7.00;99.20;;;6.24;72.96;101821.53;5014548;28;20238;-78
2023/05/04 05:42:51;;;;;;;9.47;4.33;;;7.00;99.30;;;6.29;72.52;101818.56;5015315;28;20636;-78
2023/05/04 05:45:22;;;;;;;9.37;4.47;;;7.00;99.30;;;6.33;72.93;101825.38;5014548;28;20203;-78
2023/05/04 05:47:54;;;;;;;7.97;4.03;;;7.10;99.30;;;6.36;72.36;101831.34;5014545;28;20215;-79
2023/05/04 05:50:27;;;;;;;10.87;4.53;;;7.10;99.20;;;6.40;72.65;101832.84;5017096;28;20807;-78
2023/05/04 05:52:58;;;;;;;12.57;4.37;;;7.20;99.20;;;6.43;72.62;101827.28;5014558;28;20202;-65
2023/05/04 05:55:30;;;;;;;7.07;4.50;;;7.20;99.30;;;6.46;72.07;101827.06;5016043;28;20192;-75
2023/05/04 05:58:04;;;;;;;10.23;4.40;;;7.20;99.00;;;6.52;72.72;101831.09;5018839;28;20195;-75
2023/05/04 06:00:36;;;;;;;8.53;4.87;;;7.30;99.30;;;6.58;72.63;101830.66;5021468;28;20239;-74
2023/05/04 06:03:08;;;;;;;6.77;4.53;;;7.40;99.30;;;6.60;72.31;101832.28;5021499;28;20199;-75
2023/05/04 06:05:40;;;;;;;9.87;4.20;;;7.40;99.20;;;6.68;72.50;101830.88;5019087;28;20195;-75
2023/05/04 06:08:11;;;;;;;9.53;4.00;;;7.50;99.40;;;6.75;72.70;101824.16;5015870;28;20294;-74
2023/05/04 06:10:43;;;;;;;9.30;4.67;;;7.50;99.40;;;6.79;72.57;101823.81;5015596;28;20231;-75
2023/05/04 06:13:16;;;;;;;13.27;5.33;;;7.60;99.20;;;6.87;72.13;101828.59;5015214;28;20678;-76
2023/05/04 06:15:53;;;;;;;7.03;3.73;;;7.60;99.00;;;6.91;71.71;101822.09;5015265;28;20219;-76
2023/05/04 06:18:25;;;;;;;10.93;4.40;;;7.70;98.80;;;7.01;71.07;101818.66;5015122;28;20187;-76
2023/05/04 06:21:02;;;;;;;12.90;4.93;;;7.80;98.60;;;7.08;71.04;101819.06;5015019;28;20683;-76
2023/05/04 06:23:35;;;;;;;10.57;4.60;;;7.90;98.50;;;7.19;70.69;101821.81;5015275;28;20564;-76
2023/05/04 06:26:07;;;;;;;10.63;4.43;;;7.90;98.50;;;7.21;69.99;101819.88;5015073;28;20637;-76
2023/05/04 06:28:40;;;;;;;11.03;4.93;;;8.00;98.00;;;7.31;70.43;101822.69;5014990;28;20211;-76
2023/05/04 06:31:12;;;;;;;8.93;4.60;;;8.10;98.20;;;7.36;70.54;101818.75;5015164;28;20191;-76
2023/05/04 06:33:45;;;;;;;12.47;5.03;;;8.20;98.20;;;7.42;70.59;101815.63;5014769;28;20310;-76
2023/05/04 06:36:18;;;;;;;11.67;4.47;;;8.20;98.10;;;7.49;69.97;101819.53;5014172;28;20568;-76
2023/05/04 06:38:50;;;;;;;8.67;4.00;;;8.30;98.00;;;7.56;69.61;101820.78;5016490;28;20224;-77
2023/05/04 06:41:21;;;;;;;10.87;4.70;;;8.30;97.80;;;7.62;69.55;101825.66;5015352;28;20641;-77
2023/05/04 06:43:55;;;;;;;11.10;4.23;;;8.40;97.80;;;7.75;69.49;101830.03;5015361;28;20215;-77
2023/05/04 06:46:30;;;;;;;8.17;4.40;;;8.50;97.60;;;7.86;68.63;101817.63;5015706;28;20203;-76
2023/05/04 06:49:04;;;;;;;8.57;3.90;;;8.70;97.10;;;7.88;68.93;101814.81;5015564;28;20652;-76
2023/05/04 06:51:37;;;;;;;6.97;3.90;;;8.70;97.40;;;7.97;68.38;101819.47;5015766;28;20198;-76
2023/05/04 06:54:11;;;;;;;8.07;4.33;;;8.80;97.00;;;8.07;67.46;101820.47;5015450;28;20187;-76
2023/05/04 06:56:43;;;;;;;8.17;3.67;;;8.90;96.80;;;8.20;66.59;101826.53;5015454;28;20227;-76
2023/05/04 06:59:19;;;;;;;11.47;4.17;;;9.00;96.20;;;8.29;65.43;101825.03;5014164;28;20227;-76
2023/05/04 07:01:51;;;;;;;8.30;3.60;;;9.10;95.80;;;8.34;66.70;101820.16;5014795;28;20648;-76
2023/05/04 07:04:24;;;;;;;7.07;4.10;;;9.20;96.30;;;8.40;66.64;101825.88;5018544;28;20215;-77
2023/05/04 07:06:57;;;;;;;8.80;3.97;;;9.20;96.20;;;8.55;65.90;101826.50;5018974;28;20216;-76
2023/05/04 07:09:29;;;;;;;7.50;3.60;;;9.30;96.00;;;8.59;66.09;101823.47;5018795;28;20231;-75
2023/05/04 07:12:03;;;;;;;7.47;4.00;;;9.40;95.90;;;8.64;65.91;101826.63;5019260;28;20199;-76
2023/05/04 07:14:36;;;;;;;6.47;4.10;;;9.40;95.80;;;8.78;65.43;101822.00;5018890;28;20191;-77
2023/05/04 07:17:10;;;;;;;7.17;3.83;;;9.50;95.60;;;8.80;66.98;101820.06;5018675;28;20192;-77
2023/05/04 07:19:43;;;;;;;6.33;3.43;;;9.60;96.20;;;8.93;65.01;101820.78;5018990;28;20223;-77
2023/05/04 07:22:15;;;;;;;6.90;3.90;;;9.70;95.30;;;9.03;64.23;101811.91;5019084;28;20203;-77
2023/05/04 07:24:47;;;;;;;7.80;4.00;;;9.90;95.10;;;9.09;64.71;101811.41;5018579;28;20200;-76
2023/05/04 07:27:19;;;;;;;8.27;3.87;;;9.90;95.20;;;9.15;66.17;101810.88;5018042;28;20633;-76
2023/05/04 07:29:53;;;;;;;7.67;3.53;;;10.00;95.60;;;9.18;64.58;101808.97;5017866;28;20635;-76
2023/05/04 07:32:27;;;;;;;11.07;3.87;;;10.00;95.20;;;9.27;64.05;101810.88;5018300;28;20222;-77
2023/05/04 07:34:59;;;;;;;6.97;3.90;;;10.00;95.10;;;9.30;63.83;101816.81;5018707;28;20215;-76
2023/05/04 07:37:33;;;;;;;10.63;4.07;;;10.10;94.90;;;9.43;63.57;101817.50;5018392;28;20203;-76
2023/05/04 07:40:06;;;;;;;9.53;3.93;;;10.20;94.60;;;9.55;63.01;101813.81;5018254;28;20231;-75
2023/05/04 07:42:41;;;;;;;7.40;3.97;;;10.30;94.30;;;9.60;63.04;101810.75;5018160;28;20265;-75
2023/05/04 07:45:16;;;;;;;5.27;3.47;;;10.30;94.30;;;9.61;63.60;101807.09;5018333;28;20655;-75
2023/05/04 07:47:47;;;;;;;9.53;3.63;;;10.40;94.40;;;9.64;63.79;101802.34;5018032;28;20565;-76
2023/05/04 07:50:19;;;;;;;5.77;3.17;;;10.40;94.60;;;9.74;64.49;101802.41;5017619;28;20227;-76
2023/05/04 07:52:51;;;;;;;8.70;4.07;;;10.50;94.90;;;9.87;62.81;101796.88;5017566;28;20195;-76
2023/05/04 07:55:25;;;;;;;9.17;3.97;;;10.70;94.10;;;9.97;61.42;101793.28;5018101;28;20655;-77
2023/05/04 07:57:56;;;;;;;8.03;3.50;;;10.80;93.30;;;10.08;60.98;101803.06;5018159;28;20195;-76
2023/05/04 08:00:30;;;;;;;8.97;3.43;;;10.80;93.10;;;10.17;59.58;101792.44;5018671;28;20231;-76
2023/05/04 08:03:03;;;;;;;6.17;3.40;;;10.90;92.40;;;10.24;60.24;101790.09;5017507;28;20195;-76
2023/05/04 08:05:35;;;;;;;12.33;3.70;;;11.00;93.10;;;10.32;59.75;101787.59;5017244;28;20227;-76
2023/05/04 08:08:07;;;;;;;8.27;3.57;;;11.10;92.40;;;10.38;61.13;101792.41;5017283;28;20231;-77
2023/05/04 08:10:40;;;;;;;8.57;3.80;;;11.10;93.20;;;10.43;61.33;101786.69;5017436;28;20239;-77
2023/05/04 08:13:14;;;;;;;10.00;3.87;;;11.20;93.30;;;10.55;59.19;101791.78;5017046;28;20199;-76
2023/05/04 08:15:47;;;;;;;7.17;3.63;;;11.30;92.30;;;10.59;59.61;101782.53;5015754;28;20290;-76
2023/05/04 08:18:20;;;;;;;9.43;4.07;;;11.30;92.10;;;10.73;58.71;101780.44;5016930;28;20206;-76
2023/05/04 08:20:54;;;;;;;10.13;3.73;;;11.40;92.00;;;10.82;59.30;101780.47;5016671;28;20200;-77
2023/05/04 08:23:27;;;;;;;8.60;3.10;;;11.50;92.00;;;10.88;59.83;101776.41;5016807;28;20199;-76
2023/05/04 08:26:05;;;;;;;8.43;3.70;;;11.60;92.80;;;10.97;58.95;101778.25;5016646;28;20210;-76
2023/05/04 08:28:41;;;;;;;6.53;3.70;;;11.70;91.90;;;11.01;59.72;101774.31;5016546;28;20208;-76
2023/05/04 08:31:15;;;;;;;5.97;3.27;;;11.80;92.10;;;11.13;58.29;101773.22;5016369;28;20541;-76
2023/05/04 08:33:49;;;;;;;6.97;3.60;;;11.90;91.60;;;11.22;59.53;101767.03;5016636;28;20211;-76
2023/05/04 08:36:21;;;;;;;4.67;3.70;;;12.00;92.40;;;11.35;56.24;101767.59;5017127;28;20200;-76
2023/05/04 08:38:53;;;;;;;6.80;3.47;;;12.10;90.90;;;11.51;56.79;101762.50;5016822;28;20227;-76
2023/05/04 08:41:25;;;;;;;6.57;3.80;;;12.20;91.00;;;11.56;55.81;101759.41;5016625;28;20192;-76
2023/05/04 08:44:00;;;;;;;8.87;3.70;;;12.30;90.10;;;11.70;55.87;101764.34;5016646;28;20192;-76
2023/05/04 08:46:37;;;;;;;6.97;3.60;;;12.40;90.20;;;11.75;57.01;101751.38;5016011;28;20188;-76
2023/05/04 08:49:09;;;;;;;7.63;3.53;;;12.50;90.60;;;11.81;57.29;101752.66;5016292;28;20236;-76
2023/05/04 08:51:42;;;;;;;6.97;3.70;;;12.50;90.70;;;11.89;55.80;101750.06;5016018;28;20195;-76
2023/05/04 08:54:18;;;;;;;6.17;3.53;;;12.60;89.80;;;11.98;55.64;101743.88;5015517;28;20227;-76
2023/05/04 08:56:55;;;;;;;5.10;3.40;;;12.70;89.70;;;12.04;56.73;101743.28;5015765;28;20183;-76
2023/05/04 08:59:31;;;;;;;8.17;3.50;;;12.70;90.40;;;12.21;52.95;101739.84;5015498;28;20231;-76
2023/05/04 09:02:05;;;;;;;5.97;3.43;;;12.90;87.30;;;12.30;53.15;101738.09;5015647;28;20656;-75
2023/05/04 09:04:37;;;;;;;8.40;3.60;;;13.00;87.40;;;12.49;52.81;101727.28;5015852;28;20227;-75
2023/05/04 09:07:09;;;;;;;4.27;3.10;;;13.10;85.90;;;12.48;55.73;101730.97;5015586;28;20191;-76
2023/05/04 09:09:41;;;;;;;7.80;3.10;;;13.10;89.40;;;12.59;53.28;101722.72;5015267;28;20231;-76
2023/05/04 09:12:13;;;;;;;7.77;3.30;;;13.30;86.40;;;12.66;52.30;101721.97;5016076;28;20200;-76
2023/05/04 09:14:48;;;;;;;6.33;3.90;;;13.40;84.70;;;12.76;51.97;101724.59;5015740;28;20191;-77
2023/05/04 09:17:26;;;;;;;6.20;3.30;;;13.40;85.10;;;12.91;49.12;101727.63;5015939;28;20192;-76
2023/05/04 09:20:05;;;;;;;4.07;3.03;;;13.60;80.80;;;12.94;51.07;101721.94;5015780;28;20237;-76
2023/05/04 09:22:39;;;;;;;7.13;2.90;;;13.60;82.70;;;12.99;51.99;101722.31;5015414;28;20536;-77
2023/05/04 09:25:17;;;;;;;4.30;2.90;;;13.70;83.30;;;13.08;48.97;101718.72;5015719;28;20198;-77
2023/05/04 09:27:57;;;;;;;5.63;3.47;;;13.80;80.30;;;13.15;52.15;101714.47;5014686;28;20207;-76
2023/05/04 09:30:31;;;;;;;5.80;3.20;;;13.80;84.80;;;13.44;49.56;101712.38;5015411;28;20239;-76
2023/05/04 09:33:05;;;;;;;4.97;3.57;;;14.10;80.30;;;13.44;49.23;101717.75;5014866;28;20221;-76
2023/05/04 09:35:38;;;;;;;8.70;3.23;;;14.10;79.00;;;13.55;49.84;101714.81;5015420;28;20196;-76
2023/05/04 09:38:13;;;;;;;8.20;3.57;;;14.20;79.10;;;13.69;48.85;101703.50;5015030;28;20215;-77
2023/05/04 09:40:46;;;;;;;5.10;3.37;;;14.30;78.60;;;13.72;50.69;101702.34;5015066;28;20219;-76
2023/05/04 09:43:17;;;;;;;5.47;3.30;;;14.40;79.90;;;13.90;48.55;101699.59;5014869;28;20663;-77
2023/05/04 09:45:51;;;;;;;7.07;3.43;;;14.50;78.50;;;13.98;47.59;101696.94;5015063;28;20648;-77
2023/05/04 09:48:27;;;;;;;4.23;2.83;;;14.60;76.40;;;14.01;49.45;101697.47;5014597;28;20207;-77
2023/05/04 09:51:01;;;;;;;8.00;3.10;;;14.70;79.00;;;14.16;47.82;101695.88;5014418;28;20659;-77
2023/05/04 09:53:37;;;;;;;15.40;8.60;;;14.80;77.40;;;14.30;48.49;101686.34;5014873;28;20202;-76
2023/05/04 09:56:20;;;;;;;8.47;2.97;;;14.90;79.50;;;14.37;48.60;101682.03;5015297;28;20198;-76
2023/05/04 09:58:55;;;;;;;5.33;3.03;;;15.00;77.20;;;14.54;46.42;101677.56;5014933;28;20230;-76
2023/05/04 10:01:29;;;;;;;7.77;2.87;;;15.20;74.90;;;14.68;45.58;101677.78;5015097;28;20191;-78
2023/05/04 10:04:02;;;;;;;8.67;3.47;;;15.30;73.10;;;14.84;45.58;101678.81;5014964;28;20192;-76
2023/05/04 10:06:36;;;;;;;5.87;2.60;;;15.50;73.60;;;14.95;46.62;101675.81;5015030;28;20195;-77
2023/05/04 10:09:12;;;;;;;5.83;2.87;;;15.60;73.80;;;15.06;45.71;101673.63;5014800;28;20242;-76
2023/05/04 10:11:45;;;;;;;7.40;2.87;;;15.70;71.90;;;15.11;44.58;101667.72;5014380;28;20644;-76
2023/05/04 10:14:17;;;;;;;5.67;2.60;;;15.70;70.20;;;15.18;45.13;101666.88;5014520;28;20188;-76
2023/05/04 10:17:01;;;;;;;7.37;3.00;;;15.80;69.80;;;15.21;45.31;101663.84;5014705;28;20210;-76
2023/05/04 10:19:55;;;;;;;6.53;2.80;;;15.80;71.20;;;15.26;43.26;101663.38;5014396;28;20230;-76
2023/05/04 10:22:53;;;;;;;7.17;5.23;;;15.90;68.60;;;15.34;41.32;101663.38;5014532;28;20192;-76
2023/05/04 10:25:52;;;;;;;5.23;3.00;;;15.90;67.30;;;15.37;43.67;101659.47;5014442;28;20211;-77
2023/05/04 10:28:43;;;;;;;3.87;2.80;;;15.90;67.40;;;15.46;43.20;101659.31;5014263;28;20213;-77
2023/05/04 10:31:15;;;;;;;5.30;2.50;;;16.10;68.10;;;15.46;41.00;101653.91;5014100;28;20218;-77
2023/05/04 10:33:47;;;;;;;8.33;5.23;;;16.10;64.50;;;15.58;43.22;101655.25;5013622;28;20215;-65
2023/05/04 10:36:20;;;;;;;7.90;3.43;;;16.10;66.20;;;15.72;43.64;101646.47;5013868;28;20192;-76
2023/05/04 10:38:52;;;;;;;5.90;3.30;;;16.30;67.80;;;15.81;44.32;101646.47;5012712;28;20227;-76
2023/05/04 10:41:25;;;;;;;7.47;3.07;;;16.40;67.00;;;15.89;43.05;101649.16;5013817;28;20192;-76
2023/05/04 10:44:08;;;;;;;5.83;2.97;;;16.40;66.00;;;15.98;44.69;101637.31;5013801;28;20192;-76
2023/05/04 10:46:40;;;;;;;5.63;2.90;;;16.60;68.80;;;16.09;45.58;101650.44;5013811;28;20198;-74